Arden, Nevada
Current Conditions -  °F | °C
As of 11:56 AM on Thursday 23 Oct 2014 (Local Time) from KLAS Reporting Station
Scattered Clouds Scattered Clouds  
Wind Chill: 26°   Ceiling: Unl
Heat Index: 26°   Visibility: 10mi
Dew Point:   Wind: 3mph
Humidity: 19%   Direction: 70°ENE
Pressure: 30.05"   Gusts: NA
Location:  36.079°N, 115.211°W
Report Text: KLAS 231856Z 07003KT 10SM SCT250 26/01 A3005 RMK AO2 SLP156 T02560006
Loading
Personal Weather Stations






























Interactive Weather Map
Tropical Storm Tracking
New forecast layout! Learn more

10-Day Weather Forecast

Advertisements
Track Severe Weather on mobile